sensor_id;sensor_type;location;lat;lon;timestamp;P1;durP1;ratioP1;P2;durP2;ratioP2
37141;SDS011;23041;49.816;20.092;2022-09-09T00:02:18;3.60;;;3.40;;
37141;SDS011;23041;49.816;20.092;2022-09-09T00:07:36;3.83;;;3.25;;
37141;SDS011;23041;49.816;20.092;2022-09-09T00:13:18;3.30;;;3.10;;
37141;SDS011;23041;49.816;20.092;2022-09-09T00:21:48;2.70;;;2.60;;
37141;SDS011;23041;49.816;20.092;2022-09-09T00:27:14;3.25;;;2.92;;
37141;SDS011;23041;49.816;20.092;2022-09-09T00:30:13;3.00;;;2.80;;
37141;SDS011;23041;49.816;20.092;2022-09-09T00:32:50;3.15;;;2.95;;
37141;SDS011;23041;49.816;20.092;2022-09-09T00:35:24;3.65;;;3.20;;
37141;SDS011;23041;49.816;20.092;2022-09-09T00:37:58;3.30;;;3.10;;
37141;SDS011;23041;49.816;20.092;2022-09-09T00:40:55;3.00;;;2.80;;
37141;SDS011;23041;49.816;20.092;2022-09-09T00:43:41;3.87;;;3.30;;
37141;SDS011;23041;49.816;20.092;2022-09-09T00:49:30;4.80;;;3.80;;
37141;SDS011;23041;49.816;20.092;2022-09-09T00:52:22;4.12;;;3.75;;
37141;SDS011;23041;49.816;20.092;2022-09-09T00:57:44;3.87;;;3.58;;
37141;SDS011;23041;49.816;20.092;2022-09-09T01:06:11;3.60;;;3.40;;
37141;SDS011;23041;49.816;20.092;2022-09-09T01:08:56;3.77;;;3.47;;
37141;SDS011;23041;49.816;20.092;2022-09-09T01:17:21;3.22;;;3.02;;
37141;SDS011;23041;49.816;20.092;2022-09-09T01:28:46;3.10;;;2.90;;
37141;SDS011;23041;49.816;20.092;2022-09-09T01:31:14;5.58;;;3.10;;
37141;SDS011;23041;49.816;20.092;2022-09-09T01:33:46;3.67;;;2.90;;
37141;SDS011;23041;49.816;20.092;2022-09-09T01:36:18;3.10;;;2.90;;
37141;SDS011;23041;49.816;20.092;2022-09-09T01:38:47;6.92;;;3.40;;
37141;SDS011;23041;49.816;20.092;2022-09-09T01:41:13;3.15;;;2.85;;
37141;SDS011;23041;49.816;20.092;2022-09-09T01:43:40;3.15;;;2.95;;
37141;SDS011;23041;49.816;20.092;2022-09-09T01:46:06;2.70;;;2.50;;
37141;SDS011;23041;49.816;20.092;2022-09-09T01:48:33;2.47;;;2.27;;
37141;SDS011;23041;49.816;20.092;2022-09-09T01:51:00;3.52;;;2.70;;
37141;SDS011;23041;49.816;20.092;2022-09-09T01:53:27;2.85;;;2.65;;
37141;SDS011;23041;49.816;20.092;2022-09-09T02:07:03;2.35;;;2.17;;
37141;SDS011;23041;49.816;20.092;2022-09-09T02:09:58;2.40;;;2.30;;
37141;SDS011;23041;49.816;20.092;2022-09-09T02:12:33;3.95;;;2.60;;
37141;SDS011;23041;49.816;20.092;2022-09-09T02:15:02;2.80;;;2.60;;
37141;SDS011;23041;49.816;20.092;2022-09-09T02:17:35;3.02;;;2.42;;
37141;SDS011;23041;49.816;20.092;2022-09-09T02:20:08;5.62;;;2.72;;
37141;SDS011;23041;49.816;20.092;2022-09-09T02:22:41;3.40;;;2.40;;
37141;SDS011;23041;49.816;20.092;2022-09-09T02:25:10;7.17;;;2.35;;
37141;SDS011;23041;49.816;20.092;2022-09-09T02:27:40;3.52;;;2.30;;
37141;SDS011;23041;49.816;20.092;2022-09-09T02:30:11;2.67;;;2.58;;
37141;SDS011;23041;49.816;20.092;2022-09-09T02:32:38;3.83;;;2.65;;
37141;SDS011;23041;49.816;20.092;2022-09-09T02:35:09;2.80;;;2.60;;
37141;SDS011;23041;49.816;20.092;2022-09-09T02:37:41;4.47;;;3.17;;
37141;SDS011;23041;49.816;20.092;2022-09-09T02:40:12;3.05;;;2.85;;
37141;SDS011;23041;49.816;20.092;2022-09-09T02:42:41;2.72;;;2.52;;
37141;SDS011;23041;49.816;20.092;2022-09-09T02:52:58;2.77;;;2.67;;
37141;SDS011;23041;49.816;20.092;2022-09-09T02:58:22;2.95;;;2.72;;
37141;SDS011;23041;49.816;20.092;2022-09-09T03:00:49;3.62;;;3.27;;
37141;SDS011;23041;49.816;20.092;2022-09-09T03:03:17;4.70;;;2.70;;
37141;SDS011;23041;49.816;20.092;2022-09-09T03:05:45;2.60;;;2.40;;
37141;SDS011;23041;49.816;20.092;2022-09-09T03:08:12;2.67;;;2.47;;
37141;SDS011;23041;49.816;20.092;2022-09-09T03:10:39;4.60;;;2.27;;
37141;SDS011;23041;49.816;20.092;2022-09-09T03:13:05;5.85;;;2.47;;
37141;SDS011;23041;49.816;20.092;2022-09-09T03:15:32;2.80;;;2.60;;
37141;SDS011;23041;49.816;20.092;2022-09-09T03:17:59;2.67;;;2.47;;
37141;SDS011;23041;49.816;20.092;2022-09-09T03:20:26;3.30;;;2.47;;
37141;SDS011;23041;49.816;20.092;2022-09-09T03:22:54;2.85;;;2.20;;
37141;SDS011;23041;49.816;20.092;2022-09-09T03:25:22;2.50;;;2.30;;
37141;SDS011;23041;49.816;20.092;2022-09-09T03:27:49;4.58;;;2.30;;
37141;SDS011;23041;49.816;20.092;2022-09-09T03:30:19;3.87;;;2.50;;
37141;SDS011;23041;49.816;20.092;2022-09-09T03:32:47;2.55;;;2.35;;
37141;SDS011;23041;49.816;20.092;2022-09-09T03:35:13;3.00;;;2.80;;
37141;SDS011;23041;49.816;20.092;2022-09-09T03:37:41;4.40;;;2.52;;
37141;SDS011;23041;49.816;20.092;2022-09-09T03:40:08;3.25;;;2.95;;
37141;SDS011;23041;49.816;20.092;2022-09-09T03:42:36;3.08;;;2.37;;
37141;SDS011;23041;49.816;20.092;2022-09-09T03:45:07;2.52;;;2.27;;
37141;SDS011;23041;49.816;20.092;2022-09-09T03:47:36;3.98;;;2.12;;
37141;SDS011;23041;49.816;20.092;2022-09-09T03:50:04;2.80;;;2.60;;
37141;SDS011;23041;49.816;20.092;2022-09-09T03:52:34;3.17;;;2.98;;
37141;SDS011;23041;49.816;20.092;2022-09-09T03:55:02;4.42;;;2.77;;
37141;SDS011;23041;49.816;20.092;2022-09-09T03:57:30;5.28;;;3.20;;
37141;SDS011;23041;49.816;20.092;2022-09-09T04:00:05;3.20;;;2.90;;
37141;SDS011;23041;49.816;20.092;2022-09-09T04:02:30;5.47;;;3.58;;
37141;SDS011;23041;49.816;20.092;2022-09-09T04:04:57;3.60;;;3.15;;
37141;SDS011;23041;49.816;20.092;2022-09-09T04:07:23;5.17;;;3.02;;
37141;SDS011;23041;49.816;20.092;2022-09-09T04:09:50;3.98;;;3.08;;
37141;SDS011;23041;49.816;20.092;2022-09-09T04:12:22;2.60;;;2.40;;
37141;SDS011;23041;49.816;20.092;2022-09-09T04:14:48;2.52;;;2.33;;
37141;SDS011;23041;49.816;20.092;2022-09-09T04:17:15;4.50;;;2.58;;
37141;SDS011;23041;49.816;20.092;2022-09-09T04:19:41;3.50;;;2.77;;
37141;SDS011;23041;49.816;20.092;2022-09-09T04:22:08;3.10;;;2.90;;
37141;SDS011;23041;49.816;20.092;2022-09-09T04:24:34;5.92;;;3.25;;
37141;SDS011;23041;49.816;20.092;2022-09-09T04:27:01;3.40;;;3.20;;
37141;SDS011;23041;49.816;20.092;2022-09-09T04:29:27;7.40;;;3.80;;
37141;SDS011;23041;49.816;20.092;2022-09-09T04:31:54;3.27;;;3.08;;
37141;SDS011;23041;49.816;20.092;2022-09-09T04:34:20;5.20;;;3.58;;
37141;SDS011;23041;49.816;20.092;2022-09-09T04:36:46;4.05;;;3.77;;
37141;SDS011;23041;49.816;20.092;2022-09-09T04:39:13;4.70;;;4.03;;
37141;SDS011;23041;49.816;20.092;2022-09-09T04:41:40;5.37;;;4.17;;
37141;SDS011;23041;49.816;20.092;2022-09-09T04:44:06;4.90;;;4.30;;
37141;SDS011;23041;49.816;20.092;2022-09-09T04:46:32;3.95;;;3.65;;
37141;SDS011;23041;49.816;20.092;2022-09-09T04:49:01;4.08;;;3.75;;
37141;SDS011;23041;49.816;20.092;2022-09-09T04:51:28;4.90;;;3.95;;
37141;SDS011;23041;49.816;20.092;2022-09-09T04:53:56;3.60;;;3.30;;
37141;SDS011;23041;49.816;20.092;2022-09-09T04:56:23;9.25;;;3.70;;
37141;SDS011;23041;49.816;20.092;2022-09-09T04:58:51;3.40;;;3.15;;
37141;SDS011;23041;49.816;20.092;2022-09-09T05:01:18;3.77;;;3.10;;
37141;SDS011;23041;49.816;20.092;2022-09-09T05:03:51;3.58;;;3.30;;
37141;SDS011;23041;49.816;20.092;2022-09-09T05:06:19;3.05;;;2.62;;
37141;SDS011;23041;49.816;20.092;2022-09-09T05:08:47;3.15;;;2.90;;
37141;SDS011;23041;49.816;20.092;2022-09-09T05:11:16;5.65;;;4.87;;
37141;SDS011;23041;49.816;20.092;2022-09-09T05:13:51;8.58;;;4.20;;
37141;SDS011;23041;49.816;20.092;2022-09-09T05:16:19;6.00;;;4.15;;
37141;SDS011;23041;49.816;20.092;2022-09-09T05:18:48;4.87;;;4.37;;
37141;SDS011;23041;49.816;20.092;2022-09-09T05:21:17;4.28;;;3.37;;
37141;SDS011;23041;49.816;20.092;2022-09-09T05:23:46;3.15;;;2.95;;
37141;SDS011;23041;49.816;20.092;2022-09-09T05:26:14;2.95;;;2.75;;
37141;SDS011;23041;49.816;20.092;2022-09-09T05:28:43;5.72;;;3.90;;
37141;SDS011;23041;49.816;20.092;2022-09-09T05:31:11;3.42;;;3.22;;
37141;SDS011;23041;49.816;20.092;2022-09-09T05:33:39;3.35;;;3.08;;
37141;SDS011;23041;49.816;20.092;2022-09-09T05:36:09;3.92;;;3.37;;
37141;SDS011;23041;49.816;20.092;2022-09-09T05:38:39;3.15;;;2.85;;
37141;SDS011;23041;49.816;20.092;2022-09-09T05:41:07;4.28;;;2.70;;
37141;SDS011;23041;49.816;20.092;2022-09-09T05:43:35;3.05;;;2.85;;
37141;SDS011;23041;49.816;20.092;2022-09-09T05:46:20;3.10;;;2.90;;
37141;SDS011;23041;49.816;20.092;2022-09-09T05:48:38;3.60;;;2.87;;
37141;SDS011;23041;49.816;20.092;2022-09-09T05:51:07;3.10;;;2.75;;
37141;SDS011;23041;49.816;20.092;2022-09-09T05:53:41;3.25;;;2.95;;
37141;SDS011;23041;49.816;20.092;2022-09-09T05:56:10;2.92;;;2.45;;
37141;SDS011;23041;49.816;20.092;2022-09-09T05:58:40;3.00;;;2.80;;
37141;SDS011;23041;49.816;20.092;2022-09-09T06:01:12;3.23;;;2.60;;
37141;SDS011;23041;49.816;20.092;2022-09-09T06:03:51;2.55;;;2.35;;
37141;SDS011;23041;49.816;20.092;2022-09-09T06:06:19;2.47;;;2.37;;
37141;SDS011;23041;49.816;20.092;2022-09-09T06:08:53;2.77;;;2.35;;
37141;SDS011;23041;49.816;20.092;2022-09-09T06:11:25;3.72;;;2.40;;
37141;SDS011;23041;49.816;20.092;2022-09-09T06:13:56;2.10;;;2.00;;
37141;SDS011;23041;49.816;20.092;2022-09-09T06:16:24;3.37;;;2.22;;
37141;SDS011;23041;49.816;20.092;2022-09-09T06:21:23;2.47;;;2.20;;
37141;SDS011;23041;49.816;20.092;2022-09-09T06:23:54;2.72;;;2.05;;
37141;SDS011;23041;49.816;20.092;2022-09-09T06:26:23;4.53;;;2.30;;
37141;SDS011;23041;49.816;20.092;2022-09-09T06:28:52;1.85;;;1.75;;
37141;SDS011;23041;49.816;20.092;2022-09-09T06:31:21;2.10;;;1.90;;
37141;SDS011;23041;49.816;20.092;2022-09-09T06:33:50;1.42;;;1.40;;
37141;SDS011;23041;49.816;20.092;2022-09-09T06:36:21;2.40;;;2.00;;
37141;SDS011;23041;49.816;20.092;2022-09-09T06:38:50;2.00;;;1.47;;
37141;SDS011;23041;49.816;20.092;2022-09-09T06:41:18;2.83;;;1.80;;
37141;SDS011;23041;49.816;20.092;2022-09-09T06:43:46;2.10;;;2.00;;
37141;SDS011;23041;49.816;20.092;2022-09-09T06:46:14;4.23;;;1.67;;
37141;SDS011;23041;49.816;20.092;2022-09-09T06:48:47;2.83;;;2.12;;
37141;SDS011;23041;49.816;20.092;2022-09-09T06:51:15;2.42;;;1.70;;
37141;SDS011;23041;49.816;20.092;2022-09-09T06:53:46;1.80;;;1.40;;
37141;SDS011;23041;49.816;20.092;2022-09-09T06:58:49;2.22;;;1.52;;
37141;SDS011;23041;49.816;20.092;2022-09-09T07:01:22;1.42;;;1.37;;
37141;SDS011;23041;49.816;20.092;2022-09-09T07:03:54;2.15;;;1.45;;
37141;SDS011;23041;49.816;20.092;2022-09-09T07:06:29;1.55;;;1.45;;
37141;SDS011;23041;49.816;20.092;2022-09-09T07:09:11;1.35;;;1.27;;
37141;SDS011;23041;49.816;20.092;2022-09-09T07:11:42;1.32;;;1.30;;
37141;SDS011;23041;49.816;20.092;2022-09-09T07:14:12;2.55;;;1.57;;
37141;SDS011;23041;49.816;20.092;2022-09-09T07:16:40;1.42;;;1.20;;
37141;SDS011;23041;49.816;20.092;2022-09-09T07:19:07;1.67;;;1.57;;
37141;SDS011;23041;49.816;20.092;2022-09-09T07:21:35;2.90;;;1.45;;
37141;SDS011;23041;49.816;20.092;2022-09-09T07:24:01;1.98;;;1.67;;
37141;SDS011;23041;49.816;20.092;2022-09-09T07:26:30;1.80;;;1.70;;
37141;SDS011;23041;49.816;20.092;2022-09-09T07:28:57;1.72;;;1.62;;
37141;SDS011;23041;49.816;20.092;2022-09-09T07:31:25;1.70;;;1.60;;
37141;SDS011;23041;49.816;20.092;2022-09-09T07:33:55;1.35;;;1.30;;
37141;SDS011;23041;49.816;20.092;2022-09-09T07:36:24;1.70;;;1.62;;
37141;SDS011;23041;49.816;20.092;2022-09-09T07:38:54;2.02;;;1.80;;
37141;SDS011;23041;49.816;20.092;2022-09-09T07:41:24;2.77;;;1.60;;
37141;SDS011;23041;49.816;20.092;2022-09-09T07:43:58;1.60;;;1.27;;
37141;SDS011;23041;49.816;20.092;2022-09-09T07:46:24;1.75;;;1.65;;
37141;SDS011;23041;49.816;20.092;2022-09-09T07:48:53;1.52;;;1.47;;
37141;SDS011;23041;49.816;20.092;2022-09-09T07:51:23;1.40;;;1.40;;
37141;SDS011;23041;49.816;20.092;2022-09-09T07:53:53;1.52;;;1.42;;
37141;SDS011;23041;49.816;20.092;2022-09-09T07:56:26;1.80;;;1.70;;
37141;SDS011;23041;49.816;20.092;2022-09-09T07:58:54;1.70;;;1.60;;
37141;SDS011;23041;49.816;20.092;2022-09-09T08:01:29;1.57;;;1.47;;
37141;SDS011;23041;49.816;20.092;2022-09-09T08:04:03;1.57;;;1.47;;
37141;SDS011;23041;49.816;20.092;2022-09-09T08:06:35;1.60;;;1.32;;
37141;SDS011;23041;49.816;20.092;2022-09-09T08:09:05;1.72;;;1.60;;
37141;SDS011;23041;49.816;20.092;2022-09-09T08:11:32;1.77;;;1.67;;
37141;SDS011;23041;49.816;20.092;2022-09-09T08:14:02;1.77;;;1.55;;
37141;SDS011;23041;49.816;20.092;2022-09-09T08:16:30;2.10;;;1.42;;
37141;SDS011;23041;49.816;20.092;2022-09-09T08:19:02;2.12;;;1.37;;
37141;SDS011;23041;49.816;20.092;2022-09-09T08:21:30;1.70;;;1.60;;
37141;SDS011;23041;49.816;20.092;2022-09-09T08:23:59;2.52;;;1.98;;
37141;SDS011;23041;49.816;20.092;2022-09-09T08:26:29;1.60;;;1.50;;
37141;SDS011;23041;49.816;20.092;2022-09-09T08:29:00;1.30;;;1.30;;
37141;SDS011;23041;49.816;20.092;2022-09-09T08:31:35;2.33;;;1.60;;
37141;SDS011;23041;49.816;20.092;2022-09-09T08:34:12;1.40;;;1.40;;
37141;SDS011;23041;49.816;20.092;2022-09-09T08:36:40;2.40;;;1.52;;
37141;SDS011;23041;49.816;20.092;2022-09-09T08:39:09;1.60;;;1.50;;
37141;SDS011;23041;49.816;20.092;2022-09-09T08:50:31;1.40;;;1.12;;
37141;SDS011;23041;49.816;20.092;2022-09-09T09:03:42;1.15;;;1.05;;
37141;SDS011;23041;49.816;20.092;2022-09-09T09:11:58;1.55;;;1.20;;
37141;SDS011;23041;49.816;20.092;2022-09-09T09:14:29;1.10;;;1.10;;
37141;SDS011;23041;49.816;20.092;2022-09-09T09:17:03;1.12;;;1.02;;
37141;SDS011;23041;49.816;20.092;2022-09-09T09:19:33;3.30;;;1.10;;
37141;SDS011;23041;49.816;20.092;2022-09-09T09:25:09;1.30;;;1.20;;
37141;SDS011;23041;49.816;20.092;2022-09-09T09:30:45;1.42;;;1.42;;
37141;SDS011;23041;49.816;20.092;2022-09-09T09:38:56;1.25;;;1.15;;
37141;SDS011;23041;49.816;20.092;2022-09-09T09:41:33;2.15;;;1.32;;
37141;SDS011;23041;49.816;20.092;2022-09-09T09:44:18;1.72;;;1.35;;
37141;SDS011;23041;49.816;20.092;2022-09-09T09:49:51;1.52;;;1.42;;
37141;SDS011;23041;49.816;20.092;2022-09-09T09:52:25;1.45;;;1.35;;
37141;SDS011;23041;49.816;20.092;2022-09-09T09:54:55;1.20;;;1.20;;
37141;SDS011;23041;49.816;20.092;2022-09-09T09:57:26;1.60;;;1.47;;
37141;SDS011;23041;49.816;20.092;2022-09-09T10:00:15;1.20;;;1.10;;
37141;SDS011;23041;49.816;20.092;2022-09-09T10:02:44;0.90;;;0.90;;
37141;SDS011;23041;49.816;20.092;2022-09-09T10:05:13;1.00;;;1.00;;
37141;SDS011;23041;49.816;20.092;2022-09-09T10:07:46;1.22;;;1.10;;
37141;SDS011;23041;49.816;20.092;2022-09-09T10:10:19;1.17;;;1.17;;
37141;SDS011;23041;49.816;20.092;2022-09-09T10:13:03;1.85;;;1.00;;
37141;SDS011;23041;49.816;20.092;2022-09-09T10:18:36;1.45;;;1.27;;
37141;SDS011;23041;49.816;20.092;2022-09-09T10:21:18;1.25;;;1.10;;
37141;SDS011;23041;49.816;20.092;2022-09-09T10:30:02;1.65;;;0.90;;
37141;SDS011;23041;49.816;20.092;2022-09-09T10:32:45;0.90;;;0.90;;
37141;SDS011;23041;49.816;20.092;2022-09-09T10:35:26;1.30;;;1.20;;
37141;SDS011;23041;49.816;20.092;2022-09-09T10:52:19;1.20;;;1.20;;
37141;SDS011;23041;49.816;20.092;2022-09-09T10:57:46;1.20;;;1.10;;
37141;SDS011;23041;49.816;20.092;2022-09-09T11:00:19;1.30;;;1.05;;
37141;SDS011;23041;49.816;20.092;2022-09-09T11:02:49;1.07;;;1.07;;
37141;SDS011;23041;49.816;20.092;2022-09-09T11:05:39;1.12;;;1.12;;
37141;SDS011;23041;49.816;20.092;2022-09-09T11:08:12;1.20;;;1.20;;
37141;SDS011;23041;49.816;20.092;2022-09-09T11:11:03;1.20;;;1.20;;
37141;SDS011;23041;49.816;20.092;2022-09-09T11:16:29;1.30;;;1.30;;
37141;SDS011;23041;49.816;20.092;2022-09-09T11:19:26;1.27;;;1.27;;
37141;SDS011;23041;49.816;20.092;2022-09-09T11:21:50;1.40;;;1.30;;
37141;SDS011;23041;49.816;20.092;2022-09-09T11:27:18;1.80;;;1.80;;
37141;SDS011;23041;49.816;20.092;2022-09-09T11:30:13;2.10;;;2.10;;
37141;SDS011;23041;49.816;20.092;2022-09-09T11:33:04;2.35;;;2.27;;
37141;SDS011;23041;49.816;20.092;2022-09-09T11:35:42;2.50;;;2.40;;
37141;SDS011;23041;49.816;20.092;2022-09-09T11:38:26;2.80;;;2.70;;
37141;SDS011;23041;49.816;20.092;2022-09-09T11:41:14;2.70;;;2.60;;
37141;SDS011;23041;49.816;20.092;2022-09-09T11:43:45;2.60;;;2.50;;
37141;SDS011;23041;49.816;20.092;2022-09-09T11:46:17;2.20;;;2.20;;
37141;SDS011;23041;49.816;20.092;2022-09-09T11:48:59;1.97;;;1.80;;
37141;SDS011;23041;49.816;20.092;2022-09-09T11:51:29;2.00;;;1.90;;
37141;SDS011;23041;49.816;20.092;2022-09-09T11:53:59;1.35;;;1.35;;
37141;SDS011;23041;49.816;20.092;2022-09-09T11:56:41;1.92;;;1.82;;
37141;SDS011;23041;49.816;20.092;2022-09-09T11:59:21;1.50;;;1.40;;
37141;SDS011;23041;49.816;20.092;2022-09-09T12:15:55;2.33;;;2.08;;
37141;SDS011;23041;49.816;20.092;2022-09-09T12:18:32;1.90;;;1.90;;
37141;SDS011;23041;49.816;20.092;2022-09-09T12:21:07;2.05;;;1.82;;
37141;SDS011;23041;49.816;20.092;2022-09-09T12:23:48;2.22;;;2.12;;
37141;SDS011;23041;49.816;20.092;2022-09-09T12:26:24;1.62;;;1.60;;
37141;SDS011;23041;49.816;20.092;2022-09-09T12:29:09;1.82;;;1.80;;
37141;SDS011;23041;49.816;20.092;2022-09-09T12:34:43;1.10;;;1.10;;
37141;SDS011;23041;49.816;20.092;2022-09-09T12:40:22;2.55;;;1.30;;
37141;SDS011;23041;49.816;20.092;2022-09-09T12:43:02;1.25;;;1.15;;
37141;SDS011;23041;49.816;20.092;2022-09-09T12:45:47;1.07;;;1.07;;
37141;SDS011;23041;49.816;20.092;2022-09-09T12:48:25;1.30;;;1.20;;
37141;SDS011;23041;49.816;20.092;2022-09-09T12:51:16;1.92;;;1.20;;
37141;SDS011;23041;49.816;20.092;2022-09-09T12:53:57;1.20;;;1.10;;
37141;SDS011;23041;49.816;20.092;2022-09-09T12:56:28;2.62;;;1.27;;
37141;SDS011;23041;49.816;20.092;2022-09-09T12:58:57;1.67;;;1.20;;
37141;SDS011;23041;49.816;20.092;2022-09-09T13:01:28;1.00;;;1.00;;
37141;SDS011;23041;49.816;20.092;2022-09-09T13:03:57;1.30;;;1.20;;
37141;SDS011;23041;49.816;20.092;2022-09-09T13:06:26;1.27;;;1.27;;
37141;SDS011;23041;49.816;20.092;2022-09-09T13:08:58;1.85;;;1.20;;
37141;SDS011;23041;49.816;20.092;2022-09-09T13:11:50;1.10;;;1.10;;
37141;SDS011;23041;49.816;20.092;2022-09-09T13:14:04;1.25;;;1.10;;
37141;SDS011;23041;49.816;20.092;2022-09-09T13:16:33;1.20;;;1.10;;
37141;SDS011;23041;49.816;20.092;2022-09-09T13:19:06;1.20;;;1.20;;
37141;SDS011;23041;49.816;20.092;2022-09-09T13:21:36;1.15;;;1.15;;
37141;SDS011;23041;49.816;20.092;2022-09-09T13:24:04;1.57;;;1.00;;
37141;SDS011;23041;49.816;20.092;2022-09-09T13:26:35;2.22;;;1.07;;
37141;SDS011;23041;49.816;20.092;2022-09-09T13:31:37;1.27;;;0.80;;
37141;SDS011;23041;49.816;20.092;2022-09-09T13:36:58;0.90;;;0.90;;
37141;SDS011;23041;49.816;20.092;2022-09-09T13:39:37;2.22;;;1.15;;
37141;SDS011;23041;49.816;20.092;2022-09-09T13:42:04;3.40;;;1.30;;
37141;SDS011;23041;49.816;20.092;2022-09-09T13:44:37;1.12;;;1.02;;
37141;SDS011;23041;49.816;20.092;2022-09-09T13:47:06;1.42;;;1.00;;
37141;SDS011;23041;49.816;20.092;2022-09-09T13:49:45;1.30;;;1.27;;
37141;SDS011;23041;49.816;20.092;2022-09-09T13:52:16;1.57;;;1.10;;
37141;SDS011;23041;49.816;20.092;2022-09-09T13:54:51;0.90;;;0.90;;
37141;SDS011;23041;49.816;20.092;2022-09-09T13:57:17;1.27;;;1.17;;
37141;SDS011;23041;49.816;20.092;2022-09-09T13:59:48;1.30;;;1.20;;
37141;SDS011;23041;49.816;20.092;2022-09-09T14:02:15;1.50;;;1.40;;
37141;SDS011;23041;49.816;20.092;2022-09-09T14:04:42;1.40;;;1.30;;
37141;SDS011;23041;49.816;20.092;2022-09-09T14:07:12;3.12;;;1.50;;
37141;SDS011;23041;49.816;20.092;2022-09-09T14:09:41;1.10;;;1.10;;
37141;SDS011;23041;49.816;20.092;2022-09-09T14:12:11;1.40;;;1.20;;
37141;SDS011;23041;49.816;20.092;2022-09-09T14:14:38;1.70;;;1.20;;
37141;SDS011;23041;49.816;20.092;2022-09-09T14:17:04;1.70;;;1.60;;
37141;SDS011;23041;49.816;20.092;2022-09-09T14:19:32;1.22;;;1.22;;
37141;SDS011;23041;49.816;20.092;2022-09-09T14:21:59;1.87;;;1.40;;
37141;SDS011;23041;49.816;20.092;2022-09-09T14:24:25;2.83;;;1.22;;
37141;SDS011;23041;49.816;20.092;2022-09-09T14:26:52;1.10;;;1.10;;
37141;SDS011;23041;49.816;20.092;2022-09-09T14:29:19;1.10;;;1.10;;
37141;SDS011;23041;49.816;20.092;2022-09-09T14:31:46;1.60;;;1.50;;
37141;SDS011;23041;49.816;20.092;2022-09-09T14:34:12;3.70;;;1.42;;
37141;SDS011;23041;49.816;20.092;2022-09-09T14:36:40;1.85;;;1.65;;
37141;SDS011;23041;49.816;20.092;2022-09-09T14:39:07;1.15;;;1.15;;
37141;SDS011;23041;49.816;20.092;2022-09-09T14:41:33;1.35;;;1.35;;
37141;SDS011;23041;49.816;20.092;2022-09-09T14:44:00;1.40;;;1.30;;
37141;SDS011;23041;49.816;20.092;2022-09-09T14:46:26;1.65;;;1.50;;
37141;SDS011;23041;49.816;20.092;2022-09-09T14:48:53;1.80;;;1.15;;
37141;SDS011;23041;49.816;20.092;2022-09-09T14:51:23;1.30;;;1.20;;
37141;SDS011;23041;49.816;20.092;2022-09-09T14:53:53;1.57;;;1.47;;
37141;SDS011;23041;49.816;20.092;2022-09-09T14:56:23;1.65;;;1.32;;
37141;SDS011;23041;49.816;20.092;2022-09-09T14:58:56;1.40;;;1.30;;
37141;SDS011;23041;49.816;20.092;2022-09-09T15:01:26;1.72;;;1.35;;
37141;SDS011;23041;49.816;20.092;2022-09-09T15:03:55;1.45;;;1.35;;
37141;SDS011;23041;49.816;20.092;2022-09-09T15:06:25;1.30;;;1.30;;
37141;SDS011;23041;49.816;20.092;2022-09-09T15:08:55;1.90;;;1.40;;
37141;SDS011;23041;49.816;20.092;2022-09-09T15:13:53;1.55;;;1.40;;
37141;SDS011;23041;49.816;20.092;2022-09-09T15:16:20;1.42;;;1.32;;
37141;SDS011;23041;49.816;20.092;2022-09-09T15:18:50;1.65;;;1.40;;
37141;SDS011;23041;49.816;20.092;2022-09-09T15:21:20;1.10;;;1.10;;
37141;SDS011;23041;49.816;20.092;2022-09-09T15:23:50;2.22;;;1.40;;
37141;SDS011;23041;49.816;20.092;2022-09-09T15:26:18;3.42;;;1.50;;
37141;SDS011;23041;49.816;20.092;2022-09-09T15:28:46;1.90;;;1.80;;
37141;SDS011;23041;49.816;20.092;2022-09-09T15:31:14;1.75;;;1.47;;
37141;SDS011;23041;49.816;20.092;2022-09-09T15:33:54;1.20;;;1.20;;
37141;SDS011;23041;49.816;20.092;2022-09-09T15:36:25;1.32;;;1.32;;
37141;SDS011;23041;49.816;20.092;2022-09-09T15:38:58;2.12;;;1.50;;
37141;SDS011;23041;49.816;20.092;2022-09-09T15:41:25;1.77;;;1.50;;
37141;SDS011;23041;49.816;20.092;2022-09-09T15:43:52;1.62;;;1.52;;
37141;SDS011;23041;49.816;20.092;2022-09-09T15:46:23;2.27;;;1.52;;
37141;SDS011;23041;49.816;20.092;2022-09-09T15:49:02;4.50;;;1.70;;
37141;SDS011;23041;49.816;20.092;2022-09-09T15:51:34;3.77;;;1.80;;
37141;SDS011;23041;49.816;20.092;2022-09-09T15:54:03;2.12;;;1.70;;
37141;SDS011;23041;49.816;20.092;2022-09-09T15:56:30;1.47;;;1.37;;
37141;SDS011;23041;49.816;20.092;2022-09-09T15:59:00;1.45;;;1.35;;
37141;SDS011;23041;49.816;20.092;2022-09-09T16:01:29;1.50;;;1.40;;
37141;SDS011;23041;49.816;20.092;2022-09-09T16:03:57;2.05;;;1.77;;
37141;SDS011;23041;49.816;20.092;2022-09-09T16:06:25;1.65;;;1.55;;
37141;SDS011;23041;49.816;20.092;2022-09-09T16:08:54;6.35;;;1.72;;
37141;SDS011;23041;49.816;20.092;2022-09-09T16:11:31;1.65;;;1.60;;
37141;SDS011;23041;49.816;20.092;2022-09-09T16:13:57;2.27;;;1.57;;
37141;SDS011;23041;49.816;20.092;2022-09-09T16:16:26;1.70;;;1.45;;
37141;SDS011;23041;49.816;20.092;2022-09-09T16:18:56;2.52;;;1.60;;
37141;SDS011;23041;49.816;20.092;2022-09-09T16:21:25;1.80;;;1.70;;
37141;SDS011;23041;49.816;20.092;2022-09-09T16:23:56;1.90;;;1.80;;
37141;SDS011;23041;49.816;20.092;2022-09-09T16:26:31;3.10;;;2.05;;
37141;SDS011;23041;49.816;20.092;2022-09-09T16:29:00;2.72;;;1.70;;
37141;SDS011;23041;49.816;20.092;2022-09-09T16:31:29;1.77;;;1.67;;
37141;SDS011;23041;49.816;20.092;2022-09-09T16:33:57;2.98;;;2.42;;
37141;SDS011;23041;49.816;20.092;2022-09-09T16:36:24;2.80;;;2.50;;
37141;SDS011;23041;49.816;20.092;2022-09-09T16:38:57;4.05;;;2.10;;
37141;SDS011;23041;49.816;20.092;2022-09-09T16:43:54;4.80;;;2.67;;
37141;SDS011;23041;49.816;20.092;2022-09-09T16:46:26;2.98;;;2.77;;
37141;SDS011;23041;49.816;20.092;2022-09-09T16:48:55;3.20;;;2.90;;
37141;SDS011;23041;49.816;20.092;2022-09-09T16:51:25;7.15;;;2.62;;
37141;SDS011;23041;49.816;20.092;2022-09-09T16:54:00;3.72;;;2.60;;
37141;SDS011;23041;49.816;20.092;2022-09-09T16:56:31;3.25;;;2.95;;
37141;SDS011;23041;49.816;20.092;2022-09-09T16:59:00;3.05;;;2.47;;
37141;SDS011;23041;49.816;20.092;2022-09-09T17:03:59;3.95;;;2.55;;
37141;SDS011;23041;49.816;20.092;2022-09-09T17:06:28;2.95;;;2.75;;
37141;SDS011;23041;49.816;20.092;2022-09-09T17:08:57;2.67;;;2.47;;
37141;SDS011;23041;49.816;20.092;2022-09-09T17:11:26;3.45;;;2.83;;
37141;SDS011;23041;49.816;20.092;2022-09-09T17:13:53;3.65;;;3.25;;
37141;SDS011;23041;49.816;20.092;2022-09-09T17:16:21;3.55;;;3.25;;
37141;SDS011;23041;49.816;20.092;2022-09-09T17:18:49;5.60;;;3.55;;
37141;SDS011;23041;49.816;20.092;2022-09-09T17:21:18;6.10;;;4.83;;
37141;SDS011;23041;49.816;20.092;2022-09-09T17:23:47;7.62;;;4.00;;
37141;SDS011;23041;49.816;20.092;2022-09-09T17:26:14;4.80;;;3.25;;
37141;SDS011;23041;49.816;20.092;2022-09-09T17:28:43;3.33;;;3.05;;
37141;SDS011;23041;49.816;20.092;2022-09-09T17:31:12;4.37;;;2.95;;
37141;SDS011;23041;49.816;20.092;2022-09-09T17:33:42;9.20;;;3.25;;
37141;SDS011;23041;49.816;20.092;2022-09-09T17:36:17;4.10;;;3.50;;
37141;SDS011;23041;49.816;20.092;2022-09-09T17:38:47;3.85;;;3.50;;
37141;SDS011;23041;49.816;20.092;2022-09-09T17:41:18;4.28;;;3.80;;
37141;SDS011;23041;49.816;20.092;2022-09-09T17:43:49;3.52;;;3.22;;
37141;SDS011;23041;49.816;20.092;2022-09-09T17:46:17;3.65;;;3.45;;
37141;SDS011;23041;49.816;20.092;2022-09-09T17:48:48;3.50;;;3.30;;
37141;SDS011;23041;49.816;20.092;2022-09-09T17:53:46;10.90;;;9.48;;